sensor_id;sensor_type;location;lat;lon;timestamp;P1;durP1;ratioP1;P2;durP2;ratioP2
42000;SDS011;27689;48.390;10.856;2024-02-16T00:01:56;13.20;;;9.50;;
42000;SDS011;27689;48.390;10.856;2024-02-16T00:04:40;14.60;;;8.97;;
42000;SDS011;27689;48.390;10.856;2024-02-16T00:07:23;15.02;;;9.80;;
42000;SDS011;27689;48.390;10.856;2024-02-16T00:10:08;11.93;;;8.53;;
42000;SDS011;27689;48.390;10.856;2024-02-16T00:12:53;10.73;;;8.63;;
42000;SDS011;27689;48.390;10.856;2024-02-16T00:15:37;11.47;;;7.53;;
42000;SDS011;27689;48.390;10.856;2024-02-16T00:18:22;11.25;;;7.95;;
42000;SDS011;27689;48.390;10.856;2024-02-16T00:21:06;10.10;;;7.30;;
42000;SDS011;27689;48.390;10.856;2024-02-16T00:23:50;9.35;;;7.40;;
42000;SDS011;27689;48.390;10.856;2024-02-16T00:26:34;14.20;;;7.10;;
42000;SDS011;27689;48.390;10.856;2024-02-16T00:29:18;12.23;;;7.47;;
42000;SDS011;27689;48.390;10.856;2024-02-16T00:32:03;11.35;;;7.55;;
42000;SDS011;27689;48.390;10.856;2024-02-16T00:37:31;10.63;;;7.05;;
42000;SDS011;27689;48.390;10.856;2024-02-16T00:40:15;9.20;;;6.75;;
42000;SDS011;27689;48.390;10.856;2024-02-16T00:42:59;8.30;;;6.67;;
42000;SDS011;27689;48.390;10.856;2024-02-16T00:45:43;10.57;;;6.50;;
42000;SDS011;27689;48.390;10.856;2024-02-16T00:48:28;9.82;;;6.78;;
42000;SDS011;27689;48.390;10.856;2024-02-16T00:51:12;9.27;;;6.75;;
42000;SDS011;27689;48.390;10.856;2024-02-16T00:53:57;10.82;;;6.93;;
42000;SDS011;27689;48.390;10.856;2024-02-16T00:56:41;9.33;;;6.67;;
42000;SDS011;27689;48.390;10.856;2024-02-16T00:59:25;8.37;;;6.33;;
42000;SDS011;27689;48.390;10.856;2024-02-16T01:02:08;8.00;;;6.70;;
42000;SDS011;27689;48.390;10.856;2024-02-16T01:04:55;10.15;;;6.85;;
42000;SDS011;27689;48.390;10.856;2024-02-16T01:07:45;8.70;;;6.20;;
42000;SDS011;27689;48.390;10.856;2024-02-16T01:10:29;9.88;;;6.55;;
42000;SDS011;27689;48.390;10.856;2024-02-16T01:13:13;8.83;;;6.53;;
42000;SDS011;27689;48.390;10.856;2024-02-16T01:15:57;7.93;;;6.00;;
42000;SDS011;27689;48.390;10.856;2024-02-16T01:18:41;8.05;;;6.15;;
42000;SDS011;27689;48.390;10.856;2024-02-16T01:21:25;8.27;;;6.57;;
42000;SDS011;27689;48.390;10.856;2024-02-16T01:24:10;7.75;;;6.43;;
42000;SDS011;27689;48.390;10.856;2024-02-16T01:26:54;8.93;;;6.23;;
42000;SDS011;27689;48.390;10.856;2024-02-16T01:29:38;7.22;;;5.93;;
42000;SDS011;27689;48.390;10.856;2024-02-16T01:32:21;8.03;;;6.53;;
42000;SDS011;27689;48.390;10.856;2024-02-16T01:35:05;8.32;;;6.68;;
42000;SDS011;27689;48.390;10.856;2024-02-16T01:37:50;10.93;;;8.05;;
42000;SDS011;27689;48.390;10.856;2024-02-16T01:40:34;7.90;;;6.50;;
42000;SDS011;27689;48.390;10.856;2024-02-16T01:43:19;9.80;;;7.25;;
42000;SDS011;27689;48.390;10.856;2024-02-16T01:46:06;9.35;;;7.18;;
42000;SDS011;27689;48.390;10.856;2024-02-16T01:48:50;8.68;;;6.65;;
42000;SDS011;27689;48.390;10.856;2024-02-16T01:51:35;9.20;;;6.85;;
42000;SDS011;27689;48.390;10.856;2024-02-16T01:54:20;7.43;;;6.05;;
42000;SDS011;27689;48.390;10.856;2024-02-16T01:57:05;8.35;;;6.63;;
42000;SDS011;27689;48.390;10.856;2024-02-16T01:59:49;8.32;;;6.90;;
42000;SDS011;27689;48.390;10.856;2024-02-16T02:02:36;8.90;;;7.32;;
42000;SDS011;27689;48.390;10.856;2024-02-16T02:05:20;12.02;;;9.10;;
42000;SDS011;27689;48.390;10.856;2024-02-16T02:08:10;11.02;;;8.27;;
42000;SDS011;27689;48.390;10.856;2024-02-16T02:10:55;10.82;;;7.75;;
42000;SDS011;27689;48.390;10.856;2024-02-16T02:13:39;10.82;;;8.30;;
42000;SDS011;27689;48.390;10.856;2024-02-16T02:16:23;12.77;;;9.33;;
42000;SDS011;27689;48.390;10.856;2024-02-16T02:19:07;11.23;;;8.60;;
42000;SDS011;27689;48.390;10.856;2024-02-16T02:21:54;9.38;;;7.75;;
42000;SDS011;27689;48.390;10.856;2024-02-16T02:24:38;12.13;;;9.02;;
42000;SDS011;27689;48.390;10.856;2024-02-16T02:27:22;9.90;;;7.65;;
42000;SDS011;27689;48.390;10.856;2024-02-16T02:30:07;9.65;;;7.40;;
42000;SDS011;27689;48.390;10.856;2024-02-16T02:32:51;10.13;;;7.68;;
42000;SDS011;27689;48.390;10.856;2024-02-16T02:35:35;12.77;;;10.35;;
42000;SDS011;27689;48.390;10.856;2024-02-16T02:38:19;15.80;;;11.57;;
42000;SDS011;27689;48.390;10.856;2024-02-16T02:41:03;15.63;;;11.15;;
42000;SDS011;27689;48.390;10.856;2024-02-16T02:43:47;15.98;;;11.80;;
42000;SDS011;27689;48.390;10.856;2024-02-16T02:46:31;15.10;;;11.77;;
42000;SDS011;27689;48.390;10.856;2024-02-16T02:49:15;22.42;;;15.70;;
42000;SDS011;27689;48.390;10.856;2024-02-16T02:51:59;15.43;;;12.07;;
42000;SDS011;27689;48.390;10.856;2024-02-16T02:54:43;14.13;;;11.13;;
42000;SDS011;27689;48.390;10.856;2024-02-16T02:57:27;15.68;;;10.90;;
42000;SDS011;27689;48.390;10.856;2024-02-16T03:00:11;12.60;;;8.93;;
42000;SDS011;27689;48.390;10.856;2024-02-16T03:02:55;10.45;;;8.38;;
42000;SDS011;27689;48.390;10.856;2024-02-16T03:05:40;9.32;;;8.30;;
42000;SDS011;27689;48.390;10.856;2024-02-16T03:08:25;11.55;;;8.85;;
42000;SDS011;27689;48.390;10.856;2024-02-16T03:11:09;11.77;;;8.27;;
42000;SDS011;27689;48.390;10.856;2024-02-16T03:13:54;11.85;;;8.88;;
42000;SDS011;27689;48.390;10.856;2024-02-16T03:16:38;11.13;;;8.57;;
42000;SDS011;27689;48.390;10.856;2024-02-16T03:19:22;11.73;;;9.30;;
42000;SDS011;27689;48.390;10.856;2024-02-16T03:22:06;9.90;;;7.60;;
42000;SDS011;27689;48.390;10.856;2024-02-16T03:24:50;8.32;;;7.38;;
42000;SDS011;27689;48.390;10.856;2024-02-16T03:27:34;12.32;;;8.32;;
42000;SDS011;27689;48.390;10.856;2024-02-16T03:30:19;15.25;;;9.27;;
42000;SDS011;27689;48.390;10.856;2024-02-16T03:33:03;11.90;;;8.77;;
42000;SDS011;27689;48.390;10.856;2024-02-16T03:35:47;10.25;;;8.95;;
42000;SDS011;27689;48.390;10.856;2024-02-16T03:38:32;11.68;;;7.38;;
42000;SDS011;27689;48.390;10.856;2024-02-16T03:41:20;9.27;;;7.47;;
42000;SDS011;27689;48.390;10.856;2024-02-16T03:44:04;8.75;;;7.22;;
42000;SDS011;27689;48.390;10.856;2024-02-16T03:46:48;9.73;;;6.73;;
42000;SDS011;27689;48.390;10.856;2024-02-16T03:49:32;10.00;;;7.82;;
42000;SDS011;27689;48.390;10.856;2024-02-16T03:52:16;10.20;;;6.70;;
42000;SDS011;27689;48.390;10.856;2024-02-16T03:55:00;14.18;;;7.60;;
42000;SDS011;27689;48.390;10.856;2024-02-16T03:57:44;10.48;;;7.40;;
42000;SDS011;27689;48.390;10.856;2024-02-16T04:00:28;8.98;;;6.90;;
42000;SDS011;27689;48.390;10.856;2024-02-16T04:03:12;13.38;;;9.32;;
42000;SDS011;27689;48.390;10.856;2024-02-16T04:05:55;13.52;;;8.32;;
42000;SDS011;27689;48.390;10.856;2024-02-16T04:08:39;11.83;;;8.20;;
42000;SDS011;27689;48.390;10.856;2024-02-16T04:11:23;14.00;;;10.30;;
42000;SDS011;27689;48.390;10.856;2024-02-16T04:14:07;13.37;;;8.80;;
42000;SDS011;27689;48.390;10.856;2024-02-16T04:16:52;14.18;;;8.77;;
42000;SDS011;27689;48.390;10.856;2024-02-16T04:19:36;11.77;;;9.32;;
42000;SDS011;27689;48.390;10.856;2024-02-16T04:22:20;10.85;;;8.82;;
42000;SDS011;27689;48.390;10.856;2024-02-16T04:25:04;10.93;;;9.27;;
42000;SDS011;27689;48.390;10.856;2024-02-16T04:27:49;11.13;;;7.57;;
42000;SDS011;27689;48.390;10.856;2024-02-16T04:30:32;15.30;;;10.00;;
42000;SDS011;27689;48.390;10.856;2024-02-16T04:33:17;10.73;;;8.80;;
42000;SDS011;27689;48.390;10.856;2024-02-16T04:36:01;10.80;;;8.50;;
42000;SDS011;27689;48.390;10.856;2024-02-16T04:38:45;15.57;;;9.85;;
42000;SDS011;27689;48.390;10.856;2024-02-16T04:41:29;16.10;;;10.30;;
42000;SDS011;27689;48.390;10.856;2024-02-16T04:44:13;13.95;;;9.63;;
42000;SDS011;27689;48.390;10.856;2024-02-16T04:46:56;17.35;;;11.35;;
42000;SDS011;27689;48.390;10.856;2024-02-16T04:49:41;15.55;;;10.73;;
42000;SDS011;27689;48.390;10.856;2024-02-16T04:52:24;14.30;;;10.70;;
42000;SDS011;27689;48.390;10.856;2024-02-16T04:55:08;19.10;;;11.75;;
42000;SDS011;27689;48.390;10.856;2024-02-16T04:57:52;14.05;;;11.48;;
42000;SDS011;27689;48.390;10.856;2024-02-16T05:00:37;13.45;;;10.88;;
42000;SDS011;27689;48.390;10.856;2024-02-16T05:03:22;13.15;;;10.15;;
42000;SDS011;27689;48.390;10.856;2024-02-16T05:06:06;12.38;;;10.13;;
42000;SDS011;27689;48.390;10.856;2024-02-16T05:08:50;11.35;;;9.88;;
42000;SDS011;27689;48.390;10.856;2024-02-16T05:11:34;11.10;;;9.18;;
42000;SDS011;27689;48.390;10.856;2024-02-16T05:14:18;13.95;;;11.27;;
42000;SDS011;27689;48.390;10.856;2024-02-16T05:17:02;11.05;;;9.43;;
42000;SDS011;27689;48.390;10.856;2024-02-16T05:19:46;14.93;;;9.80;;
42000;SDS011;27689;48.390;10.856;2024-02-16T05:22:31;16.83;;;11.63;;
42000;SDS011;27689;48.390;10.856;2024-02-16T05:25:15;18.07;;;12.43;;
42000;SDS011;27689;48.390;10.856;2024-02-16T05:28:01;16.48;;;11.02;;
42000;SDS011;27689;48.390;10.856;2024-02-16T05:30:46;17.23;;;12.18;;
42000;SDS011;27689;48.390;10.856;2024-02-16T05:33:30;16.98;;;12.63;;
42000;SDS011;27689;48.390;10.856;2024-02-16T05:36:21;15.82;;;11.10;;
42000;SDS011;27689;48.390;10.856;2024-02-16T05:39:09;14.13;;;10.90;;
42000;SDS011;27689;48.390;10.856;2024-02-16T05:42:10;13.48;;;9.50;;
42000;SDS011;27689;48.390;10.856;2024-02-16T05:44:54;12.48;;;9.38;;
42000;SDS011;27689;48.390;10.856;2024-02-16T05:47:38;13.23;;;9.95;;
42000;SDS011;27689;48.390;10.856;2024-02-16T05:50:22;14.90;;;9.50;;
42000;SDS011;27689;48.390;10.856;2024-02-16T05:53:06;11.55;;;8.88;;
42000;SDS011;27689;48.390;10.856;2024-02-16T05:55:52;11.65;;;8.10;;
42000;SDS011;27689;48.390;10.856;2024-02-16T05:58:36;11.87;;;8.93;;
42000;SDS011;27689;48.390;10.856;2024-02-16T06:01:20;10.75;;;8.98;;
42000;SDS011;27689;48.390;10.856;2024-02-16T06:04:04;10.02;;;7.90;;
42000;SDS011;27689;48.390;10.856;2024-02-16T06:06:48;10.60;;;8.23;;
42000;SDS011;27689;48.390;10.856;2024-02-16T06:09:31;8.77;;;7.47;;
42000;SDS011;27689;48.390;10.856;2024-02-16T06:12:18;10.38;;;8.20;;
42000;SDS011;27689;48.390;10.856;2024-02-16T06:15:03;9.20;;;7.68;;
42000;SDS011;27689;48.390;10.856;2024-02-16T06:17:48;11.60;;;8.60;;
42000;SDS011;27689;48.390;10.856;2024-02-16T06:20:33;10.52;;;7.88;;
42000;SDS011;27689;48.390;10.856;2024-02-16T06:23:17;9.57;;;7.40;;
42000;SDS011;27689;48.390;10.856;2024-02-16T06:26:01;11.32;;;7.93;;
42000;SDS011;27689;48.390;10.856;2024-02-16T06:28:45;11.50;;;7.50;;
42000;SDS011;27689;48.390;10.856;2024-02-16T06:31:29;8.52;;;6.75;;
42000;SDS011;27689;48.390;10.856;2024-02-16T06:34:14;10.25;;;7.03;;
42000;SDS011;27689;48.390;10.856;2024-02-16T06:36:58;9.85;;;7.80;;
42000;SDS011;27689;48.390;10.856;2024-02-16T06:39:42;10.18;;;7.00;;
42000;SDS011;27689;48.390;10.856;2024-02-16T06:42:26;10.55;;;7.15;;
42000;SDS011;27689;48.390;10.856;2024-02-16T06:45:10;9.53;;;7.03;;
42000;SDS011;27689;48.390;10.856;2024-02-16T06:47:55;11.48;;;7.50;;
42000;SDS011;27689;48.390;10.856;2024-02-16T06:50:40;10.57;;;7.03;;
42000;SDS011;27689;48.390;10.856;2024-02-16T06:53:24;11.18;;;6.63;;
42000;SDS011;27689;48.390;10.856;2024-02-16T06:56:09;11.67;;;7.00;;
42000;SDS011;27689;48.390;10.856;2024-02-16T06:58:53;10.05;;;7.57;;
42000;SDS011;27689;48.390;10.856;2024-02-16T07:01:37;9.48;;;7.03;;
42000;SDS011;27689;48.390;10.856;2024-02-16T07:04:21;14.95;;;9.38;;
42000;SDS011;27689;48.390;10.856;2024-02-16T07:07:05;14.75;;;9.40;;
42000;SDS011;27689;48.390;10.856;2024-02-16T07:09:50;20.05;;;11.18;;
42000;SDS011;27689;48.390;10.856;2024-02-16T07:12:34;16.83;;;10.80;;
42000;SDS011;27689;48.390;10.856;2024-02-16T07:15:18;12.13;;;8.70;;
42000;SDS011;27689;48.390;10.856;2024-02-16T07:18:02;13.63;;;9.30;;
42000;SDS011;27689;48.390;10.856;2024-02-16T07:20:47;15.90;;;9.77;;
42000;SDS011;27689;48.390;10.856;2024-02-16T07:23:31;14.18;;;9.85;;
42000;SDS011;27689;48.390;10.856;2024-02-16T07:26:15;16.42;;;10.70;;
42000;SDS011;27689;48.390;10.856;2024-02-16T07:29:00;16.65;;;11.00;;
42000;SDS011;27689;48.390;10.856;2024-02-16T07:31:44;16.20;;;10.30;;
42000;SDS011;27689;48.390;10.856;2024-02-16T07:34:29;18.02;;;10.45;;
42000;SDS011;27689;48.390;10.856;2024-02-16T07:37:13;19.55;;;10.07;;
42000;SDS011;27689;48.390;10.856;2024-02-16T07:39:57;14.63;;;9.27;;
42000;SDS011;27689;48.390;10.856;2024-02-16T07:42:41;10.90;;;8.50;;
42000;SDS011;27689;48.390;10.856;2024-02-16T07:45:26;13.65;;;9.48;;
42000;SDS011;27689;48.390;10.856;2024-02-16T07:48:10;15.32;;;9.90;;
42000;SDS011;27689;48.390;10.856;2024-02-16T07:50:54;13.15;;;9.27;;
42000;SDS011;27689;48.390;10.856;2024-02-16T07:53:38;18.60;;;10.90;;
42000;SDS011;27689;48.390;10.856;2024-02-16T07:56:25;13.10;;;9.70;;
42000;SDS011;27689;48.390;10.856;2024-02-16T07:59:09;15.82;;;10.70;;
42000;SDS011;27689;48.390;10.856;2024-02-16T08:01:53;15.50;;;11.47;;
42000;SDS011;27689;48.390;10.856;2024-02-16T08:04:37;12.20;;;9.52;;
42000;SDS011;27689;48.390;10.856;2024-02-16T08:07:21;12.35;;;9.85;;
42000;SDS011;27689;48.390;10.856;2024-02-16T08:10:05;13.00;;;10.27;;
42000;SDS011;27689;48.390;10.856;2024-02-16T08:12:49;17.58;;;11.13;;
42000;SDS011;27689;48.390;10.856;2024-02-16T08:15:34;16.30;;;10.88;;
42000;SDS011;27689;48.390;10.856;2024-02-16T08:18:18;17.67;;;11.30;;
42000;SDS011;27689;48.390;10.856;2024-02-16T08:21:03;16.25;;;12.20;;
42000;SDS011;27689;48.390;10.856;2024-02-16T08:23:47;20.67;;;12.50;;
42000;SDS011;27689;48.390;10.856;2024-02-16T08:26:31;21.93;;;13.23;;
42000;SDS011;27689;48.390;10.856;2024-02-16T08:29:15;17.67;;;11.43;;
42000;SDS011;27689;48.390;10.856;2024-02-16T08:31:59;12.33;;;9.90;;
42000;SDS011;27689;48.390;10.856;2024-02-16T08:34:43;13.95;;;8.35;;
42000;SDS011;27689;48.390;10.856;2024-02-16T08:37:27;15.30;;;8.25;;
42000;SDS011;27689;48.390;10.856;2024-02-16T08:40:12;11.67;;;8.17;;
42000;SDS011;27689;48.390;10.856;2024-02-16T08:42:57;10.63;;;7.90;;
42000;SDS011;27689;48.390;10.856;2024-02-16T08:45:42;10.38;;;7.32;;
42000;SDS011;27689;48.390;10.856;2024-02-16T08:48:26;12.68;;;7.93;;
42000;SDS011;27689;48.390;10.856;2024-02-16T08:51:10;10.57;;;7.15;;
42000;SDS011;27689;48.390;10.856;2024-02-16T08:53:54;10.68;;;6.75;;
42000;SDS011;27689;48.390;10.856;2024-02-16T08:56:38;11.45;;;6.57;;
42000;SDS011;27689;48.390;10.856;2024-02-16T08:59:22;10.33;;;6.60;;
42000;SDS011;27689;48.390;10.856;2024-02-16T09:02:06;10.45;;;6.30;;
42000;SDS011;27689;48.390;10.856;2024-02-16T09:04:50;12.88;;;7.28;;
42000;SDS011;27689;48.390;10.856;2024-02-16T09:07:34;10.65;;;7.30;;
42000;SDS011;27689;48.390;10.856;2024-02-16T09:10:18;13.68;;;7.35;;
42000;SDS011;27689;48.390;10.856;2024-02-16T09:13:02;11.88;;;7.13;;
42000;SDS011;27689;48.390;10.856;2024-02-16T09:15:46;15.73;;;6.60;;
42000;SDS011;27689;48.390;10.856;2024-02-16T09:18:31;7.60;;;6.30;;
42000;SDS011;27689;48.390;10.856;2024-02-16T09:21:15;8.10;;;5.97;;
42000;SDS011;27689;48.390;10.856;2024-02-16T09:23:59;8.90;;;5.90;;
42000;SDS011;27689;48.390;10.856;2024-02-16T09:26:45;11.85;;;6.78;;
42000;SDS011;27689;48.390;10.856;2024-02-16T09:29:29;8.20;;;5.95;;
42000;SDS011;27689;48.390;10.856;2024-02-16T09:32:13;9.93;;;6.50;;
42000;SDS011;27689;48.390;10.856;2024-02-16T09:34:57;7.45;;;5.60;;
42000;SDS011;27689;48.390;10.856;2024-02-16T09:37:41;8.80;;;6.22;;
42000;SDS011;27689;48.390;10.856;2024-02-16T09:40:25;12.18;;;6.55;;
42000;SDS011;27689;48.390;10.856;2024-02-16T09:43:10;6.70;;;5.60;;
42000;SDS011;27689;48.390;10.856;2024-02-16T09:45:57;11.88;;;5.50;;
42000;SDS011;27689;48.390;10.856;2024-02-16T09:48:43;8.13;;;5.25;;
42000;SDS011;27689;48.390;10.856;2024-02-16T09:51:31;7.90;;;5.45;;
42000;SDS011;27689;48.390;10.856;2024-02-16T09:54:19;6.93;;;5.57;;
42000;SDS011;27689;48.390;10.856;2024-02-16T09:57:03;6.97;;;5.10;;
42000;SDS011;27689;48.390;10.856;2024-02-16T09:59:48;8.55;;;5.50;;
42000;SDS011;27689;48.390;10.856;2024-02-16T10:02:45;10.30;;;5.43;;
42000;SDS011;27689;48.390;10.856;2024-02-16T10:05:29;7.80;;;5.13;;
42000;SDS011;27689;48.390;10.856;2024-02-16T10:08:14;6.97;;;4.90;;
42000;SDS011;27689;48.390;10.856;2024-02-16T10:11:04;6.78;;;4.97;;
42000;SDS011;27689;48.390;10.856;2024-02-16T10:13:58;7.90;;;4.70;;
42000;SDS011;27689;48.390;10.856;2024-02-16T10:16:47;7.15;;;4.60;;
42000;SDS011;27689;48.390;10.856;2024-02-16T10:19:31;6.25;;;5.10;;
42000;SDS011;27689;48.390;10.856;2024-02-16T10:22:23;5.88;;;4.45;;
42000;SDS011;27689;48.390;10.856;2024-02-16T10:25:10;8.60;;;4.70;;
42000;SDS011;27689;48.390;10.856;2024-02-16T10:27:57;7.00;;;5.13;;
42000;SDS011;27689;48.390;10.856;2024-02-16T10:30:42;7.07;;;5.05;;
42000;SDS011;27689;48.390;10.856;2024-02-16T10:33:30;6.75;;;4.07;;
42000;SDS011;27689;48.390;10.856;2024-02-16T10:36:16;9.70;;;4.28;;
42000;SDS011;27689;48.390;10.856;2024-02-16T10:39:00;6.72;;;4.22;;
42000;SDS011;27689;48.390;10.856;2024-02-16T10:41:51;8.23;;;4.40;;
42000;SDS011;27689;48.390;10.856;2024-02-16T10:44:36;5.22;;;3.88;;
42000;SDS011;27689;48.390;10.856;2024-02-16T10:47:20;6.75;;;4.22;;
42000;SDS011;27689;48.390;10.856;2024-02-16T10:50:04;7.10;;;3.92;;
42000;SDS011;27689;48.390;10.856;2024-02-16T10:52:49;5.38;;;3.88;;
42000;SDS011;27689;48.390;10.856;2024-02-16T10:55:34;7.90;;;4.70;;
42000;SDS011;27689;48.390;10.856;2024-02-16T10:58:18;6.63;;;4.30;;
42000;SDS011;27689;48.390;10.856;2024-02-16T11:01:09;7.35;;;3.83;;
42000;SDS011;27689;48.390;10.856;2024-02-16T11:04:01;5.53;;;3.90;;
42000;SDS011;27689;48.390;10.856;2024-02-16T11:06:56;7.43;;;3.95;;
42000;SDS011;27689;48.390;10.856;2024-02-16T11:09:43;5.60;;;3.63;;
42000;SDS011;27689;48.390;10.856;2024-02-16T11:12:32;6.63;;;3.95;;
42000;SDS011;27689;48.390;10.856;2024-02-16T11:15:26;8.02;;;4.32;;
42000;SDS011;27689;48.390;10.856;2024-02-16T11:18:20;7.82;;;3.88;;
42000;SDS011;27689;48.390;10.856;2024-02-16T11:21:04;6.63;;;3.42;;
42000;SDS011;27689;48.390;10.856;2024-02-16T11:23:50;5.25;;;4.00;;
42000;SDS011;27689;48.390;10.856;2024-02-16T11:29:28;6.00;;;3.70;;
42000;SDS011;27689;48.390;10.856;2024-02-16T11:32:15;4.50;;;3.40;;
42000;SDS011;27689;48.390;10.856;2024-02-16T11:35:08;8.37;;;4.47;;
42000;SDS011;27689;48.390;10.856;2024-02-16T11:37:52;6.50;;;4.00;;
42000;SDS011;27689;48.390;10.856;2024-02-16T11:40:39;5.90;;;3.55;;
42000;SDS011;27689;48.390;10.856;2024-02-16T11:43:23;5.13;;;4.30;;
42000;SDS011;27689;48.390;10.856;2024-02-16T11:49:05;6.55;;;3.40;;
42000;SDS011;27689;48.390;10.856;2024-02-16T11:51:50;5.47;;;3.88;;
42000;SDS011;27689;48.390;10.856;2024-02-16T11:54:34;5.70;;;3.72;;
42000;SDS011;27689;48.390;10.856;2024-02-16T11:57:21;6.68;;;3.88;;
42000;SDS011;27689;48.390;10.856;2024-02-16T12:00:05;5.00;;;3.20;;
42000;SDS011;27689;48.390;10.856;2024-02-16T12:02:58;4.55;;;3.38;;
42000;SDS011;27689;48.390;10.856;2024-02-16T12:05:49;7.15;;;3.38;;
42000;SDS011;27689;48.390;10.856;2024-02-16T12:08:36;6.18;;;3.53;;
42000;SDS011;27689;48.390;10.856;2024-02-16T12:11:20;6.20;;;3.93;;
42000;SDS011;27689;48.390;10.856;2024-02-16T12:14:04;5.03;;;3.33;;
42000;SDS011;27689;48.390;10.856;2024-02-16T12:16:49;5.10;;;3.53;;
42000;SDS011;27689;48.390;10.856;2024-02-16T12:19:33;5.97;;;3.42;;
42000;SDS011;27689;48.390;10.856;2024-02-16T12:22:18;5.47;;;3.50;;
42000;SDS011;27689;48.390;10.856;2024-02-16T12:25:03;4.25;;;3.42;;
42000;SDS011;27689;48.390;10.856;2024-02-16T12:27:47;9.23;;;5.47;;
42000;SDS011;27689;48.390;10.856;2024-02-16T12:30:31;5.43;;;3.10;;
42000;SDS011;27689;48.390;10.856;2024-02-16T12:33:15;4.05;;;2.97;;
42000;SDS011;27689;48.390;10.856;2024-02-16T12:36:01;3.67;;;3.13;;
42000;SDS011;27689;48.390;10.856;2024-02-16T12:38:45;7.63;;;3.63;;
42000;SDS011;27689;48.390;10.856;2024-02-16T12:41:32;5.88;;;3.95;;
42000;SDS011;27689;48.390;10.856;2024-02-16T12:44:17;5.00;;;3.65;;
42000;SDS011;27689;48.390;10.856;2024-02-16T12:47:02;8.00;;;3.67;;
42000;SDS011;27689;48.390;10.856;2024-02-16T12:49:46;5.68;;;3.97;;
42000;SDS011;27689;48.390;10.856;2024-02-16T12:52:30;4.43;;;3.47;;
42000;SDS011;27689;48.390;10.856;2024-02-16T12:55:17;6.35;;;3.40;;
42000;SDS011;27689;48.390;10.856;2024-02-16T12:58:01;4.10;;;3.30;;
42000;SDS011;27689;48.390;10.856;2024-02-16T13:00:45;4.97;;;3.28;;
42000;SDS011;27689;48.390;10.856;2024-02-16T13:03:30;6.43;;;3.95;;
42000;SDS011;27689;48.390;10.856;2024-02-16T13:06:14;6.72;;;3.85;;
42000;SDS011;27689;48.390;10.856;2024-02-16T13:08:58;6.45;;;3.88;;
42000;SDS011;27689;48.390;10.856;2024-02-16T13:11:42;5.27;;;3.83;;
42000;SDS011;27689;48.390;10.856;2024-02-16T13:14:26;5.53;;;3.33;;
42000;SDS011;27689;48.390;10.856;2024-02-16T13:17:11;4.72;;;3.58;;
42000;SDS011;27689;48.390;10.856;2024-02-16T13:19:56;6.10;;;3.75;;
42000;SDS011;27689;48.390;10.856;2024-02-16T13:22:49;5.50;;;3.30;;
42000;SDS011;27689;48.390;10.856;2024-02-16T13:25:33;6.10;;;3.93;;
42000;SDS011;27689;48.390;10.856;2024-02-16T13:28:17;4.93;;;3.75;;
42000;SDS011;27689;48.390;10.856;2024-02-16T13:31:01;7.83;;;3.27;;
42000;SDS011;27689;48.390;10.856;2024-02-16T13:33:45;8.77;;;3.10;;
42000;SDS011;27689;48.390;10.856;2024-02-16T13:36:29;6.93;;;3.65;;
42000;SDS011;27689;48.390;10.856;2024-02-16T13:39:13;6.40;;;3.43;;
42000;SDS011;27689;48.390;10.856;2024-02-16T13:41:59;7.97;;;3.83;;
42000;SDS011;27689;48.390;10.856;2024-02-16T13:44:43;5.30;;;2.80;;
42000;SDS011;27689;48.390;10.856;2024-02-16T13:47:27;5.00;;;3.05;;
42000;SDS011;27689;48.390;10.856;2024-02-16T13:50:11;6.23;;;3.70;;
42000;SDS011;27689;48.390;10.856;2024-02-16T13:52:56;6.03;;;3.53;;
42000;SDS011;27689;48.390;10.856;2024-02-16T13:55:43;3.28;;;2.63;;
42000;SDS011;27689;48.390;10.856;2024-02-16T13:58:27;4.75;;;2.90;;
42000;SDS011;27689;48.390;10.856;2024-02-16T14:01:12;3.58;;;2.50;;
42000;SDS011;27689;48.390;10.856;2024-02-16T14:03:56;4.57;;;2.83;;
42000;SDS011;27689;48.390;10.856;2024-02-16T14:06:40;4.35;;;2.70;;
42000;SDS011;27689;48.390;10.856;2024-02-16T14:09:24;3.03;;;2.22;;
42000;SDS011;27689;48.390;10.856;2024-02-16T14:12:08;4.18;;;2.38;;
42000;SDS011;27689;48.390;10.856;2024-02-16T14:14:52;4.10;;;2.15;;
42000;SDS011;27689;48.390;10.856;2024-02-16T14:17:36;4.30;;;2.07;;
42000;SDS011;27689;48.390;10.856;2024-02-16T14:20:20;3.00;;;2.30;;
42000;SDS011;27689;48.390;10.856;2024-02-16T14:23:05;4.05;;;2.33;;
42000;SDS011;27689;48.390;10.856;2024-02-16T14:25:51;3.08;;;1.90;;
42000;SDS011;27689;48.390;10.856;2024-02-16T14:28:35;5.57;;;2.30;;
42000;SDS011;27689;48.390;10.856;2024-02-16T14:31:19;2.75;;;1.70;;
42000;SDS011;27689;48.390;10.856;2024-02-16T14:34:04;3.22;;;2.42;;
42000;SDS011;27689;48.390;10.856;2024-02-16T14:36:48;5.65;;;2.17;;
42000;SDS011;27689;48.390;10.856;2024-02-16T14:39:32;5.20;;;2.47;;
42000;SDS011;27689;48.390;10.856;2024-02-16T14:42:16;3.25;;;2.10;;
42000;SDS011;27689;48.390;10.856;2024-02-16T14:45:00;4.23;;;2.13;;
42000;SDS011;27689;48.390;10.856;2024-02-16T14:47:45;4.38;;;2.13;;
42000;SDS011;27689;48.390;10.856;2024-02-16T14:50:29;6.90;;;2.33;;
42000;SDS011;27689;48.390;10.856;2024-02-16T14:53:13;3.47;;;2.00;;
42000;SDS011;27689;48.390;10.856;2024-02-16T14:55:57;5.17;;;2.53;;
42000;SDS011;27689;48.390;10.856;2024-02-16T14:58:41;4.85;;;2.38;;
42000;SDS011;27689;48.390;10.856;2024-02-16T15:01:27;5.18;;;2.10;;
42000;SDS011;27689;48.390;10.856;2024-02-16T15:04:11;5.73;;;2.13;;
42000;SDS011;27689;48.390;10.856;2024-02-16T15:06:55;5.90;;;2.88;;
42000;SDS011;27689;48.390;10.856;2024-02-16T15:09:39;3.67;;;2.53;;
42000;SDS011;27689;48.390;10.856;2024-02-16T15:12:23;4.53;;;2.70;;
42000;SDS011;27689;48.390;10.856;2024-02-16T15:15:07;8.65;;;2.78;;
42000;SDS011;27689;48.390;10.856;2024-02-16T15:17:51;6.70;;;2.67;;
42000;SDS011;27689;48.390;10.856;2024-02-16T15:20:35;3.88;;;2.50;;
42000;SDS011;27689;48.390;10.856;2024-02-16T15:23:19;5.00;;;2.90;;
42000;SDS011;27689;48.390;10.856;2024-02-16T15:26:03;4.97;;;2.50;;
42000;SDS011;27689;48.390;10.856;2024-02-16T15:28:49;5.97;;;2.63;;
42000;SDS011;27689;48.390;10.856;2024-02-16T15:31:33;7.43;;;3.27;;
42000;SDS011;27689;48.390;10.856;2024-02-16T15:34:17;7.93;;;3.30;;
42000;SDS011;27689;48.390;10.856;2024-02-16T15:37:01;5.17;;;3.00;;
42000;SDS011;27689;48.390;10.856;2024-02-16T15:39:45;6.05;;;2.72;;
42000;SDS011;27689;48.390;10.856;2024-02-16T15:42:29;3.38;;;2.50;;
42000;SDS011;27689;48.390;10.856;2024-02-16T15:45:14;5.85;;;3.42;;
42000;SDS011;27689;48.390;10.856;2024-02-16T15:47:58;3.67;;;2.97;;
42000;SDS011;27689;48.390;10.856;2024-02-16T15:50:42;5.80;;;3.07;;
42000;SDS011;27689;48.390;10.856;2024-02-16T15:53:26;6.65;;;3.45;;
42000;SDS011;27689;48.390;10.856;2024-02-16T15:56:11;6.05;;;3.88;;
42000;SDS011;27689;48.390;10.856;2024-02-16T16:01:48;4.63;;;3.28;;
42000;SDS011;27689;48.390;10.856;2024-02-16T16:04:32;5.20;;;2.60;;
42000;SDS011;27689;48.390;10.856;2024-02-16T16:07:18;7.70;;;3.30;;
42000;SDS011;27689;48.390;10.856;2024-02-16T16:10:02;5.38;;;3.05;;
42000;SDS011;27689;48.390;10.856;2024-02-16T16:12:46;5.47;;;3.07;;
42000;SDS011;27689;48.390;10.856;2024-02-16T16:15:30;5.68;;;3.00;;
42000;SDS011;27689;48.390;10.856;2024-02-16T16:18:13;4.65;;;2.78;;
42000;SDS011;27689;48.390;10.856;2024-02-16T16:20:57;6.07;;;3.03;;